sensor_id;sensor_type;location;lat;lon;timestamp;P1;durP1;ratioP1;P2;durP2;ratioP2
71777;SDS011;59609;52.430;4.668;2023-12-28T00:01:23;13.63;;;2.00;;
71777;SDS011;59609;52.430;4.668;2023-12-28T00:03:48;11.93;;;2.47;;
71777;SDS011;59609;52.430;4.668;2023-12-28T00:06:13;15.50;;;2.35;;
71777;SDS011;59609;52.430;4.668;2023-12-28T00:08:39;17.47;;;2.40;;
71777;SDS011;59609;52.430;4.668;2023-12-28T00:11:04;17.55;;;2.55;;
71777;SDS011;59609;52.430;4.668;2023-12-28T00:13:29;17.27;;;2.37;;
71777;SDS011;59609;52.430;4.668;2023-12-28T00:15:55;22.47;;;3.07;;
71777;SDS011;59609;52.430;4.668;2023-12-28T00:18:20;13.63;;;2.20;;
71777;SDS011;59609;52.430;4.668;2023-12-28T00:20:45;20.20;;;3.17;;
71777;SDS011;59609;52.430;4.668;2023-12-28T00:23:10;17.27;;;2.80;;
71777;SDS011;59609;52.430;4.668;2023-12-28T00:25:36;18.10;;;2.70;;
71777;SDS011;59609;52.430;4.668;2023-12-28T00:28:01;11.35;;;2.70;;
71777;SDS011;59609;52.430;4.668;2023-12-28T00:30:26;11.93;;;2.63;;
71777;SDS011;59609;52.430;4.668;2023-12-28T00:32:51;18.10;;;3.07;;
71777;SDS011;59609;52.430;4.668;2023-12-28T00:35:17;9.83;;;1.80;;
71777;SDS011;59609;52.430;4.668;2023-12-28T00:37:42;8.17;;;1.97;;
71777;SDS011;59609;52.430;4.668;2023-12-28T00:40:07;15.38;;;1.98;;
71777;SDS011;59609;52.430;4.668;2023-12-28T00:42:32;12.43;;;3.25;;
71777;SDS011;59609;52.430;4.668;2023-12-28T00:44:58;5.27;;;2.37;;
71777;SDS011;59609;52.430;4.668;2023-12-28T00:47:24;15.35;;;1.85;;
71777;SDS011;59609;52.430;4.668;2023-12-28T00:49:49;11.33;;;2.33;;
71777;SDS011;59609;52.430;4.668;2023-12-28T00:52:15;13.00;;;1.92;;
71777;SDS011;59609;52.430;4.668;2023-12-28T00:54:40;10.07;;;2.30;;
71777;SDS011;59609;52.430;4.668;2023-12-28T00:57:06;11.50;;;1.97;;
71777;SDS011;59609;52.430;4.668;2023-12-28T00:59:31;11.27;;;2.07;;
71777;SDS011;59609;52.430;4.668;2023-12-28T01:01:56;9.57;;;1.63;;
71777;SDS011;59609;52.430;4.668;2023-12-28T01:04:22;18.88;;;2.22;;
71777;SDS011;59609;52.430;4.668;2023-12-28T01:06:48;9.23;;;1.80;;
71777;SDS011;59609;52.430;4.668;2023-12-28T01:09:13;12.50;;;2.20;;
71777;SDS011;59609;52.430;4.668;2023-12-28T01:11:39;10.17;;;2.53;;
71777;SDS011;59609;52.430;4.668;2023-12-28T01:14:04;17.47;;;3.03;;
71777;SDS011;59609;52.430;4.668;2023-12-28T01:16:29;11.25;;;1.90;;
71777;SDS011;59609;52.430;4.668;2023-12-28T01:18:54;11.97;;;1.73;;
71777;SDS011;59609;52.430;4.668;2023-12-28T01:21:19;12.97;;;1.80;;
71777;SDS011;59609;52.430;4.668;2023-12-28T01:23:45;13.67;;;2.97;;
71777;SDS011;59609;52.430;4.668;2023-12-28T01:26:14;14.95;;;1.85;;
71777;SDS011;59609;52.430;4.668;2023-12-28T01:28:39;7.32;;;1.50;;
71777;SDS011;59609;52.430;4.668;2023-12-28T01:31:04;6.75;;;1.77;;
71777;SDS011;59609;52.430;4.668;2023-12-28T01:33:30;12.83;;;1.73;;
71777;SDS011;59609;52.430;4.668;2023-12-28T01:35:55;9.82;;;1.63;;
71777;SDS011;59609;52.430;4.668;2023-12-28T01:38:20;9.53;;;1.93;;
71777;SDS011;59609;52.430;4.668;2023-12-28T01:40:46;11.60;;;1.90;;
71777;SDS011;59609;52.430;4.668;2023-12-28T01:43:11;9.68;;;1.73;;
71777;SDS011;59609;52.430;4.668;2023-12-28T01:45:36;6.18;;;1.13;;
71777;SDS011;59609;52.430;4.668;2023-12-28T01:48:02;6.43;;;1.73;;
71777;SDS011;59609;52.430;4.668;2023-12-28T01:50:27;6.10;;;1.35;;
71777;SDS011;59609;52.430;4.668;2023-12-28T01:52:53;7.97;;;1.20;;
71777;SDS011;59609;52.430;4.668;2023-12-28T01:55:19;8.60;;;1.65;;
71777;SDS011;59609;52.430;4.668;2023-12-28T01:57:46;5.82;;;1.35;;
71777;SDS011;59609;52.430;4.668;2023-12-28T02:00:11;8.10;;;1.83;;
71777;SDS011;59609;52.430;4.668;2023-12-28T02:02:37;10.27;;;1.90;;
71777;SDS011;59609;52.430;4.668;2023-12-28T02:05:02;8.40;;;1.90;;
71777;SDS011;59609;52.430;4.668;2023-12-28T02:07:28;8.15;;;1.83;;
71777;SDS011;59609;52.430;4.668;2023-12-28T02:09:54;12.45;;;1.70;;
71777;SDS011;59609;52.430;4.668;2023-12-28T02:12:19;8.43;;;1.67;;
71777;SDS011;59609;52.430;4.668;2023-12-28T02:14:44;8.77;;;1.50;;
71777;SDS011;59609;52.430;4.668;2023-12-28T02:19:55;12.23;;;1.67;;
71777;SDS011;59609;52.430;4.668;2023-12-28T02:22:22;9.02;;;1.77;;
71777;SDS011;59609;52.430;4.668;2023-12-28T02:27:19;8.60;;;1.92;;
71777;SDS011;59609;52.430;4.668;2023-12-28T02:29:45;12.07;;;2.27;;
71777;SDS011;59609;52.430;4.668;2023-12-28T02:32:10;8.43;;;1.63;;
71777;SDS011;59609;52.430;4.668;2023-12-28T02:34:37;14.18;;;1.70;;
71777;SDS011;59609;52.430;4.668;2023-12-28T02:37:04;8.07;;;1.35;;
71777;SDS011;59609;52.430;4.668;2023-12-28T02:39:30;8.80;;;1.38;;
71777;SDS011;59609;52.430;4.668;2023-12-28T02:41:55;7.65;;;1.90;;
71777;SDS011;59609;52.430;4.668;2023-12-28T02:44:20;7.22;;;1.50;;
71777;SDS011;59609;52.430;4.668;2023-12-28T02:46:46;9.23;;;1.55;;
71777;SDS011;59609;52.430;4.668;2023-12-28T02:49:11;12.00;;;1.80;;
71777;SDS011;59609;52.430;4.668;2023-12-28T02:51:37;6.65;;;1.30;;
71777;SDS011;59609;52.430;4.668;2023-12-28T02:54:02;12.90;;;2.00;;
71777;SDS011;59609;52.430;4.668;2023-12-28T02:56:27;14.83;;;2.27;;
71777;SDS011;59609;52.430;4.668;2023-12-28T02:58:52;8.33;;;1.53;;
71777;SDS011;59609;52.430;4.668;2023-12-28T03:01:18;8.13;;;1.47;;
71777;SDS011;59609;52.430;4.668;2023-12-28T03:03:43;9.27;;;1.60;;
71777;SDS011;59609;52.430;4.668;2023-12-28T03:06:08;12.80;;;1.97;;
71777;SDS011;59609;52.430;4.668;2023-12-28T03:08:33;6.73;;;1.33;;
71777;SDS011;59609;52.430;4.668;2023-12-28T03:10:59;6.50;;;1.23;;
71777;SDS011;59609;52.430;4.668;2023-12-28T03:13:24;12.73;;;1.83;;
71777;SDS011;59609;52.430;4.668;2023-12-28T03:15:49;12.23;;;2.07;;
71777;SDS011;59609;52.430;4.668;2023-12-28T03:18:14;10.27;;;1.80;;
71777;SDS011;59609;52.430;4.668;2023-12-28T03:20:39;7.37;;;1.67;;
71777;SDS011;59609;52.430;4.668;2023-12-28T03:23:05;11.73;;;1.77;;
71777;SDS011;59609;52.430;4.668;2023-12-28T03:25:30;14.27;;;1.87;;
71777;SDS011;59609;52.430;4.668;2023-12-28T03:27:55;11.10;;;1.73;;
71777;SDS011;59609;52.430;4.668;2023-12-28T03:30:20;8.70;;;2.33;;
71777;SDS011;59609;52.430;4.668;2023-12-28T03:32:45;9.20;;;1.83;;
71777;SDS011;59609;52.430;4.668;2023-12-28T03:35:11;11.37;;;1.53;;
71777;SDS011;59609;52.430;4.668;2023-12-28T03:37:36;14.63;;;1.83;;
71777;SDS011;59609;52.430;4.668;2023-12-28T03:40:01;7.23;;;1.30;;
71777;SDS011;59609;52.430;4.668;2023-12-28T03:42:26;9.87;;;1.60;;
71777;SDS011;59609;52.430;4.668;2023-12-28T03:44:52;10.93;;;2.00;;
71777;SDS011;59609;52.430;4.668;2023-12-28T03:47:17;14.50;;;3.13;;
71777;SDS011;59609;52.430;4.668;2023-12-28T03:49:42;16.02;;;2.05;;
71777;SDS011;59609;52.430;4.668;2023-12-28T03:52:07;13.40;;;2.70;;
71777;SDS011;59609;52.430;4.668;2023-12-28T03:54:33;8.97;;;1.90;;
71777;SDS011;59609;52.430;4.668;2023-12-28T03:56:58;12.40;;;2.20;;
71777;SDS011;59609;52.430;4.668;2023-12-28T03:59:23;11.43;;;2.67;;
71777;SDS011;59609;52.430;4.668;2023-12-28T04:01:48;8.17;;;1.70;;
71777;SDS011;59609;52.430;4.668;2023-12-28T04:04:13;13.33;;;2.30;;
71777;SDS011;59609;52.430;4.668;2023-12-28T04:06:39;9.97;;;2.17;;
71777;SDS011;59609;52.430;4.668;2023-12-28T04:09:04;9.98;;;1.67;;
71777;SDS011;59609;52.430;4.668;2023-12-28T04:11:29;11.27;;;1.63;;
71777;SDS011;59609;52.430;4.668;2023-12-28T04:13:55;8.33;;;1.70;;
71777;SDS011;59609;52.430;4.668;2023-12-28T04:16:20;10.20;;;1.80;;
71777;SDS011;59609;52.430;4.668;2023-12-28T04:18:45;5.87;;;1.30;;
71777;SDS011;59609;52.430;4.668;2023-12-28T04:21:11;13.20;;;1.70;;
71777;SDS011;59609;52.430;4.668;2023-12-28T04:23:38;12.13;;;1.42;;
71777;SDS011;59609;52.430;4.668;2023-12-28T04:26:03;13.68;;;1.77;;
71777;SDS011;59609;52.430;4.668;2023-12-28T04:28:29;8.50;;;1.30;;
71777;SDS011;59609;52.430;4.668;2023-12-28T04:30:54;12.90;;;2.05;;
71777;SDS011;59609;52.430;4.668;2023-12-28T04:33:20;14.18;;;2.03;;
71777;SDS011;59609;52.430;4.668;2023-12-28T04:35:45;9.00;;;1.60;;
71777;SDS011;59609;52.430;4.668;2023-12-28T04:38:10;12.07;;;1.88;;
71777;SDS011;59609;52.430;4.668;2023-12-28T04:40:36;10.77;;;1.80;;
71777;SDS011;59609;52.430;4.668;2023-12-28T04:43:01;14.40;;;2.65;;
71777;SDS011;59609;52.430;4.668;2023-12-28T04:45:26;12.00;;;2.47;;
71777;SDS011;59609;52.430;4.668;2023-12-28T04:47:52;13.35;;;1.63;;
71777;SDS011;59609;52.430;4.668;2023-12-28T04:50:18;14.80;;;2.55;;
71777;SDS011;59609;52.430;4.668;2023-12-28T04:52:43;13.43;;;1.87;;
71777;SDS011;59609;52.430;4.668;2023-12-28T04:55:08;13.93;;;1.93;;
71777;SDS011;59609;52.430;4.668;2023-12-28T04:57:33;14.33;;;1.90;;
71777;SDS011;59609;52.430;4.668;2023-12-28T04:59:58;13.50;;;1.37;;
71777;SDS011;59609;52.430;4.668;2023-12-28T05:02:24;14.23;;;1.67;;
71777;SDS011;59609;52.430;4.668;2023-12-28T05:04:49;19.80;;;2.23;;
71777;SDS011;59609;52.430;4.668;2023-12-28T05:07:14;12.47;;;2.07;;
71777;SDS011;59609;52.430;4.668;2023-12-28T05:09:39;9.57;;;1.73;;
71777;SDS011;59609;52.430;4.668;2023-12-28T05:12:04;16.33;;;2.40;;
71777;SDS011;59609;52.430;4.668;2023-12-28T05:14:30;20.15;;;2.08;;
71777;SDS011;59609;52.430;4.668;2023-12-28T05:16:55;11.83;;;1.63;;
71777;SDS011;59609;52.430;4.668;2023-12-28T05:19:20;16.40;;;2.97;;
71777;SDS011;59609;52.430;4.668;2023-12-28T05:21:45;19.33;;;2.53;;
71777;SDS011;59609;52.430;4.668;2023-12-28T05:24:12;14.70;;;1.83;;
71777;SDS011;59609;52.430;4.668;2023-12-28T05:26:37;9.45;;;1.63;;
71777;SDS011;59609;52.430;4.668;2023-12-28T05:29:02;12.57;;;1.83;;
71777;SDS011;59609;52.430;4.668;2023-12-28T05:31:27;17.73;;;2.53;;
71777;SDS011;59609;52.430;4.668;2023-12-28T05:33:52;18.70;;;3.27;;
71777;SDS011;59609;52.430;4.668;2023-12-28T05:36:18;12.17;;;2.03;;
71777;SDS011;59609;52.430;4.668;2023-12-28T05:38:43;11.13;;;1.77;;
71777;SDS011;59609;52.430;4.668;2023-12-28T05:41:09;12.60;;;2.13;;
71777;SDS011;59609;52.430;4.668;2023-12-28T05:43:34;15.63;;;2.13;;
71777;SDS011;59609;52.430;4.668;2023-12-28T05:45:59;9.80;;;1.93;;
71777;SDS011;59609;52.430;4.668;2023-12-28T05:48:25;10.95;;;2.42;;
71777;SDS011;59609;52.430;4.668;2023-12-28T05:50:51;13.65;;;2.08;;
71777;SDS011;59609;52.430;4.668;2023-12-28T05:53:16;18.83;;;2.40;;
71777;SDS011;59609;52.430;4.668;2023-12-28T05:55:41;17.27;;;2.60;;
71777;SDS011;59609;52.430;4.668;2023-12-28T05:58:06;14.93;;;2.63;;
71777;SDS011;59609;52.430;4.668;2023-12-28T06:00:31;16.33;;;2.50;;
71777;SDS011;59609;52.430;4.668;2023-12-28T06:02:57;17.83;;;2.07;;
71777;SDS011;59609;52.430;4.668;2023-12-28T06:05:22;19.95;;;2.47;;
71777;SDS011;59609;52.430;4.668;2023-12-28T06:07:47;22.57;;;2.93;;
71777;SDS011;59609;52.430;4.668;2023-12-28T06:10:12;14.93;;;3.10;;
71777;SDS011;59609;52.430;4.668;2023-12-28T06:12:38;15.70;;;3.33;;
71777;SDS011;59609;52.430;4.668;2023-12-28T06:15:03;18.37;;;2.37;;
71777;SDS011;59609;52.430;4.668;2023-12-28T06:17:28;16.02;;;2.47;;
71777;SDS011;59609;52.430;4.668;2023-12-28T06:19:53;15.30;;;2.87;;
71777;SDS011;59609;52.430;4.668;2023-12-28T06:22:19;14.80;;;1.83;;
71777;SDS011;59609;52.430;4.668;2023-12-28T06:24:44;26.73;;;4.00;;
71777;SDS011;59609;52.430;4.668;2023-12-28T06:27:10;14.63;;;2.53;;
71777;SDS011;59609;52.430;4.668;2023-12-28T06:29:36;19.25;;;2.88;;
71777;SDS011;59609;52.430;4.668;2023-12-28T06:32:01;17.10;;;2.43;;
71777;SDS011;59609;52.430;4.668;2023-12-28T06:34:26;22.38;;;2.90;;
71777;SDS011;59609;52.430;4.668;2023-12-28T06:36:51;18.10;;;2.43;;
71777;SDS011;59609;52.430;4.668;2023-12-28T06:39:17;17.80;;;2.55;;
71777;SDS011;59609;52.430;4.668;2023-12-28T06:41:42;13.75;;;2.70;;
71777;SDS011;59609;52.430;4.668;2023-12-28T06:44:07;24.63;;;3.50;;
71777;SDS011;59609;52.430;4.668;2023-12-28T06:46:33;20.17;;;3.05;;
71777;SDS011;59609;52.430;4.668;2023-12-28T06:48:58;23.97;;;3.03;;
71777;SDS011;59609;52.430;4.668;2023-12-28T06:51:24;20.88;;;2.88;;
71777;SDS011;59609;52.430;4.668;2023-12-28T06:53:49;24.83;;;3.08;;
71777;SDS011;59609;52.430;4.668;2023-12-28T06:56:14;18.83;;;2.93;;
71777;SDS011;59609;52.430;4.668;2023-12-28T06:58:40;23.27;;;3.05;;
71777;SDS011;59609;52.430;4.668;2023-12-28T07:01:05;22.00;;;3.35;;
71777;SDS011;59609;52.430;4.668;2023-12-28T07:03:31;18.75;;;3.60;;
71777;SDS011;59609;52.430;4.668;2023-12-28T07:06:00;20.13;;;2.70;;
71777;SDS011;59609;52.430;4.668;2023-12-28T07:08:25;20.20;;;3.50;;
71777;SDS011;59609;52.430;4.668;2023-12-28T07:10:50;23.77;;;3.23;;
71777;SDS011;59609;52.430;4.668;2023-12-28T07:13:16;23.23;;;3.27;;
71777;SDS011;59609;52.430;4.668;2023-12-28T07:15:41;24.43;;;4.03;;
71777;SDS011;59609;52.430;4.668;2023-12-28T07:18:06;19.40;;;3.33;;
71777;SDS011;59609;52.430;4.668;2023-12-28T07:20:31;21.00;;;2.77;;
71777;SDS011;59609;52.430;4.668;2023-12-28T07:22:57;11.40;;;2.10;;
71777;SDS011;59609;52.430;4.668;2023-12-28T07:25:22;22.60;;;2.95;;
71777;SDS011;59609;52.430;4.668;2023-12-28T07:27:47;22.37;;;2.90;;
71777;SDS011;59609;52.430;4.668;2023-12-28T07:30:12;15.17;;;2.17;;
71777;SDS011;59609;52.430;4.668;2023-12-28T07:32:38;22.20;;;3.00;;
71777;SDS011;59609;52.430;4.668;2023-12-28T07:35:03;14.63;;;2.33;;
71777;SDS011;59609;52.430;4.668;2023-12-28T07:37:29;20.90;;;2.75;;
71777;SDS011;59609;52.430;4.668;2023-12-28T07:39:54;27.20;;;3.03;;
71777;SDS011;59609;52.430;4.668;2023-12-28T07:42:20;13.85;;;2.47;;
71777;SDS011;59609;52.430;4.668;2023-12-28T07:44:45;17.70;;;2.27;;
71777;SDS011;59609;52.430;4.668;2023-12-28T07:47:10;28.92;;;4.03;;
71777;SDS011;59609;52.430;4.668;2023-12-28T07:49:37;23.55;;;3.03;;
71777;SDS011;59609;52.430;4.668;2023-12-28T07:52:02;19.67;;;2.73;;
71777;SDS011;59609;52.430;4.668;2023-12-28T07:54:27;20.33;;;3.78;;
71777;SDS011;59609;52.430;4.668;2023-12-28T07:56:53;17.80;;;3.08;;
71777;SDS011;59609;52.430;4.668;2023-12-28T07:59:18;22.93;;;3.00;;
71777;SDS011;59609;52.430;4.668;2023-12-28T08:01:43;20.17;;;2.40;;
71777;SDS011;59609;52.430;4.668;2023-12-28T08:04:08;19.90;;;3.00;;
71777;SDS011;59609;52.430;4.668;2023-12-28T08:06:34;12.27;;;2.23;;
71777;SDS011;59609;52.430;4.668;2023-12-28T08:08:59;17.03;;;2.83;;
71777;SDS011;59609;52.430;4.668;2023-12-28T08:11:26;19.30;;;2.83;;
71777;SDS011;59609;52.430;4.668;2023-12-28T08:13:51;18.42;;;3.10;;
71777;SDS011;59609;52.430;4.668;2023-12-28T08:16:16;20.57;;;2.70;;
71777;SDS011;59609;52.430;4.668;2023-12-28T08:18:42;20.33;;;3.10;;
71777;SDS011;59609;52.430;4.668;2023-12-28T08:21:07;13.80;;;2.10;;
71777;SDS011;59609;52.430;4.668;2023-12-28T08:23:32;24.97;;;3.63;;
71777;SDS011;59609;52.430;4.668;2023-12-28T08:25:57;18.50;;;2.57;;
71777;SDS011;59609;52.430;4.668;2023-12-28T08:28:23;19.15;;;2.55;;
71777;SDS011;59609;52.430;4.668;2023-12-28T08:30:48;21.65;;;3.15;;
71777;SDS011;59609;52.430;4.668;2023-12-28T08:33:13;18.77;;;2.95;;
71777;SDS011;59609;52.430;4.668;2023-12-28T08:35:39;20.97;;;2.90;;
71777;SDS011;59609;52.430;4.668;2023-12-28T08:38:04;15.50;;;3.30;;
71777;SDS011;59609;52.430;4.668;2023-12-28T08:40:31;27.00;;;3.70;;
71777;SDS011;59609;52.430;4.668;2023-12-28T08:42:56;22.40;;;2.90;;
71777;SDS011;59609;52.430;4.668;2023-12-28T08:45:21;17.30;;;2.53;;
71777;SDS011;59609;52.430;4.668;2023-12-28T08:47:46;18.83;;;2.77;;
71777;SDS011;59609;52.430;4.668;2023-12-28T08:50:12;24.90;;;2.63;;
71777;SDS011;59609;52.430;4.668;2023-12-28T08:52:37;16.10;;;2.17;;
71777;SDS011;59609;52.430;4.668;2023-12-28T08:55:02;17.13;;;2.50;;
71777;SDS011;59609;52.430;4.668;2023-12-28T08:57:28;14.35;;;3.53;;
71777;SDS011;59609;52.430;4.668;2023-12-28T08:59:53;17.57;;;2.87;;
71777;SDS011;59609;52.430;4.668;2023-12-28T09:02:18;15.33;;;2.70;;
71777;SDS011;59609;52.430;4.668;2023-12-28T09:04:43;18.77;;;3.03;;
71777;SDS011;59609;52.430;4.668;2023-12-28T09:07:08;19.43;;;3.37;;
71777;SDS011;59609;52.430;4.668;2023-12-28T09:09:34;9.82;;;2.90;;
71777;SDS011;59609;52.430;4.668;2023-12-28T09:11:59;15.03;;;3.50;;
71777;SDS011;59609;52.430;4.668;2023-12-28T09:14:25;23.87;;;3.90;;
71777;SDS011;59609;52.430;4.668;2023-12-28T09:16:50;16.17;;;4.63;;
71777;SDS011;59609;52.430;4.668;2023-12-28T09:19:15;19.53;;;4.20;;
71777;SDS011;59609;52.430;4.668;2023-12-28T09:21:40;18.17;;;3.73;;
71777;SDS011;59609;52.430;4.668;2023-12-28T09:24:06;12.65;;;3.08;;
71777;SDS011;59609;52.430;4.668;2023-12-28T09:26:32;16.23;;;3.83;;
71777;SDS011;59609;52.430;4.668;2023-12-28T09:28:58;18.45;;;3.75;;
71777;SDS011;59609;52.430;4.668;2023-12-28T09:31:23;17.27;;;3.73;;
71777;SDS011;59609;52.430;4.668;2023-12-28T09:33:48;13.27;;;3.47;;
71777;SDS011;59609;52.430;4.668;2023-12-28T09:36:13;37.63;;;3.97;;
71777;SDS011;59609;52.430;4.668;2023-12-28T09:38:39;19.95;;;3.78;;
71777;SDS011;59609;52.430;4.668;2023-12-28T09:41:11;20.88;;;4.07;;
71777;SDS011;59609;52.430;4.668;2023-12-28T09:43:40;13.35;;;3.33;;
71777;SDS011;59609;52.430;4.668;2023-12-28T09:46:09;23.77;;;3.95;;
71777;SDS011;59609;52.430;4.668;2023-12-28T09:48:36;13.43;;;3.83;;
71777;SDS011;59609;52.430;4.668;2023-12-28T09:51:02;19.25;;;4.15;;
71777;SDS011;59609;52.430;4.668;2023-12-28T09:53:27;11.43;;;3.28;;
71777;SDS011;59609;52.430;4.668;2023-12-28T09:55:52;12.25;;;3.00;;
71777;SDS011;59609;52.430;4.668;2023-12-28T09:58:18;18.48;;;4.68;;
71777;SDS011;59609;52.430;4.668;2023-12-28T10:00:47;15.38;;;3.10;;
71777;SDS011;59609;52.430;4.668;2023-12-28T10:03:13;12.77;;;3.65;;
71777;SDS011;59609;52.430;4.668;2023-12-28T10:05:40;15.50;;;3.95;;
71777;SDS011;59609;52.430;4.668;2023-12-28T10:08:05;14.88;;;3.10;;
71777;SDS011;59609;52.430;4.668;2023-12-28T10:10:30;16.67;;;4.65;;
71777;SDS011;59609;52.430;4.668;2023-12-28T10:12:56;19.03;;;3.67;;
71777;SDS011;59609;52.430;4.668;2023-12-28T10:15:21;16.47;;;3.23;;
71777;SDS011;59609;52.430;4.668;2023-12-28T10:17:46;22.80;;;3.60;;
71777;SDS011;59609;52.430;4.668;2023-12-28T10:20:12;12.05;;;2.90;;
71777;SDS011;59609;52.430;4.668;2023-12-28T10:22:37;16.65;;;3.80;;
71777;SDS011;59609;52.430;4.668;2023-12-28T10:25:03;15.03;;;4.07;;
71777;SDS011;59609;52.430;4.668;2023-12-28T10:27:28;14.32;;;3.47;;
71777;SDS011;59609;52.430;4.668;2023-12-28T10:29:56;21.83;;;3.40;;
71777;SDS011;59609;52.430;4.668;2023-12-28T10:32:24;11.85;;;3.40;;
71777;SDS011;59609;52.430;4.668;2023-12-28T10:34:52;18.23;;;3.42;;
71777;SDS011;59609;52.430;4.668;2023-12-28T10:37:21;23.92;;;4.18;;
71777;SDS011;59609;52.430;4.668;2023-12-28T10:39:48;16.88;;;3.55;;
71777;SDS011;59609;52.430;4.668;2023-12-28T10:44:42;12.77;;;3.37;;
71777;SDS011;59609;52.430;4.668;2023-12-28T10:47:08;13.95;;;4.22;;
71777;SDS011;59609;52.430;4.668;2023-12-28T10:49:36;13.60;;;3.08;;
71777;SDS011;59609;52.430;4.668;2023-12-28T10:52:03;16.90;;;3.40;;
71777;SDS011;59609;52.430;4.668;2023-12-28T10:57:05;26.55;;;5.60;;
71777;SDS011;59609;52.430;4.668;2023-12-28T11:02:17;18.08;;;3.55;;
71777;SDS011;59609;52.430;4.668;2023-12-28T11:04:48;17.48;;;4.28;;
71777;SDS011;59609;52.430;4.668;2023-12-28T11:07:14;20.63;;;4.90;;
71777;SDS011;59609;52.430;4.668;2023-12-28T11:09:43;21.55;;;4.57;;
71777;SDS011;59609;52.430;4.668;2023-12-28T11:14:35;23.65;;;3.53;;
71777;SDS011;59609;52.430;4.668;2023-12-28T11:17:00;20.88;;;4.18;;
71777;SDS011;59609;52.430;4.668;2023-12-28T11:19:27;20.38;;;4.70;;
71777;SDS011;59609;52.430;4.668;2023-12-28T11:21:53;17.80;;;3.95;;
71777;SDS011;59609;52.430;4.668;2023-12-28T11:24:21;18.75;;;4.03;;
71777;SDS011;59609;52.430;4.668;2023-12-28T11:26:51;18.65;;;4.57;;
71777;SDS011;59609;52.430;4.668;2023-12-28T11:29:18;19.90;;;3.30;;
71777;SDS011;59609;52.430;4.668;2023-12-28T11:31:43;21.92;;;3.13;;
71777;SDS011;59609;52.430;4.668;2023-12-28T11:34:09;14.47;;;3.80;;
71777;SDS011;59609;52.430;4.668;2023-12-28T11:36:46;20.38;;;3.50;;
71777;SDS011;59609;52.430;4.668;2023-12-28T11:39:13;12.98;;;4.07;;
71777;SDS011;59609;52.430;4.668;2023-12-28T11:41:44;19.40;;;3.67;;
71777;SDS011;59609;52.430;4.668;2023-12-28T11:44:09;16.87;;;3.77;;
71777;SDS011;59609;52.430;4.668;2023-12-28T11:46:36;11.02;;;3.35;;
71777;SDS011;59609;52.430;4.668;2023-12-28T11:49:04;19.98;;;3.00;;
71777;SDS011;59609;52.430;4.668;2023-12-28T11:51:30;15.43;;;3.70;;
71777;SDS011;59609;52.430;4.668;2023-12-28T11:53:55;25.05;;;4.53;;
71777;SDS011;59609;52.430;4.668;2023-12-28T11:56:21;25.25;;;3.80;;
71777;SDS011;59609;52.430;4.668;2023-12-28T11:58:46;16.50;;;3.50;;
71777;SDS011;59609;52.430;4.668;2023-12-28T12:01:13;8.95;;;3.03;;
71777;SDS011;59609;52.430;4.668;2023-12-28T12:03:38;26.00;;;4.07;;
71777;SDS011;59609;52.430;4.668;2023-12-28T12:06:03;16.95;;;3.60;;
71777;SDS011;59609;52.430;4.668;2023-12-28T12:08:29;16.67;;;3.08;;
71777;SDS011;59609;52.430;4.668;2023-12-28T12:11:01;16.30;;;3.63;;
71777;SDS011;59609;52.430;4.668;2023-12-28T12:13:28;34.40;;;5.30;;
71777;SDS011;59609;52.430;4.668;2023-12-28T12:15:54;21.17;;;3.90;;
71777;SDS011;59609;52.430;4.668;2023-12-28T12:18:19;14.27;;;3.20;;
71777;SDS011;59609;52.430;4.668;2023-12-28T12:20:45;14.53;;;3.53;;
71777;SDS011;59609;52.430;4.668;2023-12-28T12:23:10;17.23;;;4.23;;
71777;SDS011;59609;52.430;4.668;2023-12-28T12:25:36;18.10;;;3.63;;
71777;SDS011;59609;52.430;4.668;2023-12-28T12:28:03;20.63;;;4.60;;
71777;SDS011;59609;52.430;4.668;2023-12-28T12:30:28;15.95;;;3.55;;
71777;SDS011;59609;52.430;4.668;2023-12-28T12:32:54;16.90;;;3.40;;
71777;SDS011;59609;52.430;4.668;2023-12-28T12:35:19;15.23;;;3.30;;
71777;SDS011;59609;52.430;4.668;2023-12-28T12:37:46;26.48;;;4.28;;
71777;SDS011;59609;52.430;4.668;2023-12-28T12:40:12;18.38;;;3.67;;
71777;SDS011;59609;52.430;4.668;2023-12-28T12:42:37;14.70;;;3.37;;
71777;SDS011;59609;52.430;4.668;2023-12-28T12:45:03;17.20;;;3.88;;
71777;SDS011;59609;52.430;4.668;2023-12-28T12:47:32;12.93;;;3.00;;
71777;SDS011;59609;52.430;4.668;2023-12-28T12:49:59;14.65;;;3.70;;
71777;SDS011;59609;52.430;4.668;2023-12-28T12:52:25;17.73;;;3.73;;
71777;SDS011;59609;52.430;4.668;2023-12-28T12:54:54;16.90;;;4.45;;
71777;SDS011;59609;52.430;4.668;2023-12-28T12:57:19;20.80;;;3.90;;
71777;SDS011;59609;52.430;4.668;2023-12-28T12:59:45;18.83;;;3.77;;
71777;SDS011;59609;52.430;4.668;2023-12-28T13:02:10;17.33;;;3.50;;
71777;SDS011;59609;52.430;4.668;2023-12-28T13:04:37;21.77;;;4.30;;
71777;SDS011;59609;52.430;4.668;2023-12-28T13:07:02;16.60;;;3.53;;
71777;SDS011;59609;52.430;4.668;2023-12-28T13:09:28;17.05;;;3.45;;
71777;SDS011;59609;52.430;4.668;2023-12-28T13:11:54;12.83;;;3.03;;
71777;SDS011;59609;52.430;4.668;2023-12-28T13:14:19;13.82;;;3.50;;
71777;SDS011;59609;52.430;4.668;2023-12-28T13:16:45;15.02;;;3.30;;
71777;SDS011;59609;52.430;4.668;2023-12-28T13:19:13;14.25;;;3.15;;
71777;SDS011;59609;52.430;4.668;2023-12-28T13:21:38;14.83;;;4.13;;
71777;SDS011;59609;52.430;4.668;2023-12-28T13:24:03;18.13;;;3.83;;
71777;SDS011;59609;52.430;4.668;2023-12-28T13:26:29;17.55;;;3.50;;
71777;SDS011;59609;52.430;4.668;2023-12-28T13:28:55;20.35;;;5.32;;
71777;SDS011;59609;52.430;4.668;2023-12-28T13:31:21;25.10;;;4.45;;
71777;SDS011;59609;52.430;4.668;2023-12-28T13:33:46;16.90;;;3.60;;
71777;SDS011;59609;52.430;4.668;2023-12-28T13:36:12;13.83;;;3.77;;
71777;SDS011;59609;52.430;4.668;2023-12-28T13:38:37;17.17;;;3.27;;
71777;SDS011;59609;52.430;4.668;2023-12-28T13:41:02;15.23;;;4.37;;
71777;SDS011;59609;52.430;4.668;2023-12-28T13:43:27;15.60;;;3.58;;
71777;SDS011;59609;52.430;4.668;2023-12-28T13:45:53;15.60;;;3.00;;
71777;SDS011;59609;52.430;4.668;2023-12-28T13:48:18;13.80;;;3.60;;
71777;SDS011;59609;52.430;4.668;2023-12-28T13:50:43;12.63;;;3.83;;
71777;SDS011;59609;52.430;4.668;2023-12-28T13:53:09;14.55;;;2.83;;
71777;SDS011;59609;52.430;4.668;2023-12-28T13:55:34;15.57;;;3.17;;
71777;SDS011;59609;52.430;4.668;2023-12-28T13:58:00;18.13;;;3.65;;
71777;SDS011;59609;52.430;4.668;2023-12-28T14:00:25;18.92;;;3.50;;
71777;SDS011;59609;52.430;4.668;2023-12-28T14:02:51;18.17;;;4.17;;
71777;SDS011;59609;52.430;4.668;2023-12-28T14:05:17;13.30;;;3.50;;
71777;SDS011;59609;52.430;4.668;2023-12-28T14:07:44;14.77;;;3.58;;
71777;SDS011;59609;52.430;4.668;2023-12-28T14:10:09;14.07;;;3.60;;
71777;SDS011;59609;52.430;4.668;2023-12-28T14:12:34;20.37;;;3.27;;
71777;SDS011;59609;52.430;4.668;2023-12-28T14:14:59;17.20;;;3.83;;
71777;SDS011;59609;52.430;4.668;2023-12-28T14:17:25;13.07;;;3.10;;
71777;SDS011;59609;52.430;4.668;2023-12-28T14:19:50;21.33;;;3.40;;
71777;SDS011;59609;52.430;4.668;2023-12-28T14:22:15;18.10;;;3.17;;
71777;SDS011;59609;52.430;4.668;2023-12-28T14:24:40;21.90;;;3.45;;
71777;SDS011;59609;52.430;4.668;2023-12-28T14:27:09;17.52;;;3.05;;
71777;SDS011;59609;52.430;4.668;2023-12-28T14:29:36;23.17;;;3.10;;
71777;SDS011;59609;52.430;4.668;2023-12-28T14:32:02;15.90;;;2.45;;
71777;SDS011;59609;52.430;4.668;2023-12-28T14:34:27;9.38;;;2.30;;
71777;SDS011;59609;52.430;4.668;2023-12-28T14:36:53;15.77;;;1.85;;
71777;SDS011;59609;52.430;4.668;2023-12-28T14:39:18;14.90;;;2.60;;
71777;SDS011;59609;52.430;4.668;2023-12-28T14:41:44;13.70;;;2.00;;